createdAt,value
2018-07-01T00:00:37.736Z,23.10
2018-07-01T00:03:06.067Z,23.10
2018-07-01T00:05:34.474Z,23.10
2018-07-01T00:08:02.857Z,23.00
2018-07-01T00:10:31.101Z,23.00
2018-07-01T00:12:59.369Z,23.00
2018-07-01T00:15:27.653Z,23.00
2018-07-01T00:17:55.929Z,22.90
2018-07-01T00:20:24.193Z,22.90
2018-07-01T00:22:52.473Z,22.80
2018-07-01T00:25:20.807Z,22.80
2018-07-01T00:27:49.089Z,22.80
2018-07-01T00:30:17.396Z,22.70
2018-07-01T00:32:46.049Z,22.80
2018-07-01T00:35:14.359Z,22.70
2018-07-01T00:37:42.648Z,22.70
2018-07-01T00:40:11.345Z,22.70
2018-07-01T00:42:39.977Z,22.60
2018-07-01T00:45:08.298Z,22.60
2018-07-01T00:47:36.589Z,22.60
2018-07-01T00:50:05.646Z,22.50
2018-07-01T00:52:34.448Z,22.40
2018-07-01T00:55:02.842Z,22.40
2018-07-01T00:57:31.093Z,22.40
2018-07-01T01:02:28.044Z,22.40
2018-07-01T01:04:56.352Z,22.40
2018-07-01T01:07:24.627Z,22.40
2018-07-01T01:09:53.028Z,22.30
2018-07-01T01:12:21.535Z,22.30
2018-07-01T01:14:49.808Z,22.40
2018-07-01T01:17:18.051Z,22.30
2018-07-01T01:19:46.321Z,22.20
2018-07-01T01:22:14.619Z,22.30
2018-07-01T01:24:43.277Z,22.30
2018-07-01T01:27:11.533Z,22.20
2018-07-01T01:29:39.825Z,22.30
2018-07-01T01:32:08.129Z,22.20
2018-07-01T01:34:36.792Z,22.20
2018-07-01T01:37:05.744Z,22.20
2018-07-01T01:39:36.977Z,22.20
2018-07-01T01:42:12.508Z,22.20
2018-07-01T01:45:00.601Z,22.20
2018-07-01T01:48:34.036Z,22.10
2018-07-01T01:51:12.926Z,22.10
2018-07-01T01:53:46.386Z,22.00
2018-07-01T01:57:22.835Z,22.00
2018-07-01T01:59:56.448Z,22.00
2018-07-01T02:02:34.131Z,22.00
2018-07-01T02:05:07.563Z,22.00
2018-07-01T02:07:54.321Z,21.90
2018-07-01T02:10:22.731Z,21.90
2018-07-01T02:12:50.995Z,21.80
2018-07-01T02:15:22.653Z,21.70
2018-07-01T02:17:52.473Z,21.80
2018-07-01T02:20:23.113Z,21.80
2018-07-01T02:22:54.666Z,21.70
2018-07-01T02:25:25.610Z,21.70
2018-07-01T02:27:54.149Z,21.70
2018-07-01T02:30:22.405Z,21.70
2018-07-01T02:32:50.673Z,21.70
2018-07-01T02:35:19.143Z,21.70
2018-07-01T02:37:47.380Z,21.70
2018-07-01T02:40:16.210Z,21.60
2018-07-01T02:42:44.524Z,21.70
2018-07-01T02:45:13.112Z,21.60
2018-07-01T02:47:41.444Z,21.60
2018-07-01T02:50:09.728Z,21.60
2018-07-01T02:52:38.325Z,21.50
2018-07-01T02:55:07.101Z,21.50
2018-07-01T02:57:35.421Z,21.50
2018-07-01T03:00:04.477Z,21.50
2018-07-01T03:02:32.998Z,21.40
2018-07-01T03:05:01.613Z,21.40
2018-07-01T03:07:29.921Z,21.30
2018-07-01T03:09:58.169Z,21.30
2018-07-01T03:12:26.450Z,21.30
2018-07-01T03:14:55.049Z,21.30
2018-07-01T03:17:23.337Z,21.30
2018-07-01T03:19:51.660Z,21.30
2018-07-01T03:22:19.942Z,21.30
2018-07-01T03:24:48.585Z,21.20
2018-07-01T03:27:16.894Z,21.20
2018-07-01T03:29:45.150Z,21.20
2018-07-01T03:32:13.490Z,21.20
2018-07-01T03:34:42.097Z,21.20
2018-07-01T03:37:10.413Z,21.20
2018-07-01T03:39:38.729Z,21.20
2018-07-01T03:42:07.032Z,21.20
2018-07-01T03:44:35.597Z,21.20
2018-07-01T03:47:03.930Z,21.10
2018-07-01T03:49:32.233Z,21.10
2018-07-01T03:52:00.480Z,21.10
2018-07-01T03:54:28.829Z,21.10
2018-07-01T03:56:57.134Z,21.10
2018-07-01T03:59:25.423Z,21.00
2018-07-01T04:01:53.666Z,21.00
2018-07-01T04:04:21.984Z,21.00
2018-07-01T04:06:50.229Z,21.00
2018-07-01T04:09:18.509Z,21.00
2018-07-01T04:11:46.777Z,21.00
2018-07-01T04:14:15.049Z,21.00
2018-07-01T04:16:43.453Z,20.90
2018-07-01T04:19:11.773Z,21.00
2018-07-01T04:21:40.048Z,20.90
2018-07-01T04:24:08.325Z,20.90
2018-07-01T04:26:36.902Z,20.90
2018-07-01T04:29:05.164Z,20.90
2018-07-01T04:33:59.923Z,20.80
2018-07-01T04:36:28.188Z,20.80
2018-07-01T04:38:56.450Z,20.80
2018-07-01T04:41:24.868Z,20.80
2018-07-01T04:43:53.499Z,20.80
2018-07-01T04:46:21.749Z,20.80
2018-07-01T04:48:50.070Z,20.80
2018-07-01T04:51:18.793Z,20.80
2018-07-01T04:53:47.091Z,20.80
2018-07-01T04:56:15.360Z,20.90
2018-07-01T04:58:43.625Z,21.00
2018-07-01T05:01:12.166Z,21.00
2018-07-01T05:03:40.445Z,20.90
2018-07-01T05:06:08.739Z,20.90
2018-07-01T05:08:37.126Z,20.90
2018-07-01T05:11:05.591Z,20.90
2018-07-01T05:13:33.880Z,20.90
2018-07-01T05:16:02.196Z,20.90
2018-07-01T05:18:30.425Z,20.80
2018-07-01T05:20:58.718Z,20.80
2018-07-01T05:23:27.082Z,20.80
2018-07-01T05:25:55.361Z,20.80
2018-07-01T05:28:23.660Z,20.70
2018-07-01T05:30:51.919Z,20.70
2018-07-01T05:33:20.393Z,20.80
2018-07-01T05:35:48.713Z,20.80
2018-07-01T05:38:17.138Z,20.80
2018-07-01T05:40:45.367Z,20.80
2018-07-01T05:45:41.840Z,20.80
2018-07-01T05:48:10.144Z,20.80
2018-07-01T05:50:38.397Z,20.80
2018-07-01T05:53:06.745Z,20.80
2018-07-01T05:55:35.292Z,20.80
2018-07-01T05:58:03.581Z,20.80
2018-07-01T06:00:31.845Z,20.70
2018-07-01T06:03:00.176Z,20.70
2018-07-01T06:05:29.580Z,20.60
2018-07-01T06:07:57.932Z,20.60
2018-07-01T06:10:26.240Z,20.70
2018-07-01T06:12:55.176Z,20.70
2018-07-01T06:15:24.089Z,20.60
2018-07-01T06:17:52.529Z,20.70
2018-07-01T06:20:21.820Z,20.70
2018-07-01T06:22:50.941Z,20.80
2018-07-01T06:25:19.246Z,20.80
2018-07-01T06:27:47.709Z,20.80
2018-07-01T06:32:44.101Z,20.80
2018-07-01T06:35:12.344Z,20.80
2018-07-01T06:37:40.624Z,20.90
2018-07-01T06:40:09.126Z,20.90
2018-07-01T06:42:37.544Z,20.90
2018-07-01T06:45:05.819Z,20.90
2018-07-01T06:47:34.077Z,20.90
2018-07-01T06:50:02.321Z,20.90
2018-07-01T06:52:31.416Z,20.90
2018-07-01T06:55:00.453Z,20.90
2018-07-01T06:57:29.091Z,20.90
2018-07-01T06:59:57.386Z,21.00
2018-07-01T07:02:25.649Z,21.00
2018-07-01T07:04:53.885Z,21.00
2018-07-01T07:07:22.105Z,21.00
2018-07-01T07:09:51.037Z,21.00
2018-07-01T07:12:19.332Z,21.10
2018-07-01T07:17:15.572Z,21.10
2018-07-01T07:19:43.865Z,21.10
2018-07-01T07:22:12.200Z,21.10
2018-07-01T07:24:40.550Z,21.10
2018-07-01T07:27:08.817Z,21.10
2018-07-01T07:29:37.113Z,21.20
2018-07-01T07:32:05.461Z,21.20
2018-07-01T07:34:33.729Z,21.20
2018-07-01T07:37:01.972Z,21.20
2018-07-01T07:39:30.245Z,21.20
2018-07-01T07:41:58.533Z,21.20
2018-07-01T07:44:26.816Z,21.20
2018-07-01T07:46:55.100Z,21.20
2018-07-01T07:49:23.345Z,21.30
2018-07-01T07:51:51.625Z,21.30
2018-07-01T07:54:19.947Z,21.30
2018-07-01T07:56:48.261Z,21.40
2018-07-01T07:59:16.535Z,21.40
2018-07-01T08:01:44.840Z,21.40
2018-07-01T08:04:13.093Z,21.50
2018-07-01T08:06:41.452Z,21.50
2018-07-01T08:09:10.842Z,21.50
2018-07-01T08:11:39.410Z,21.50
2018-07-01T08:14:08.131Z,21.60
2018-07-01T08:16:36.645Z,21.60
2018-07-01T08:19:04.993Z,21.60
2018-07-01T08:21:33.577Z,21.60
2018-07-01T08:24:01.994Z,21.60
2018-07-01T08:26:30.285Z,21.60
2018-07-01T08:28:58.547Z,21.70
2018-07-01T08:31:26.832Z,21.70
2018-07-01T08:33:55.097Z,21.80
2018-07-01T08:36:23.362Z,21.80
2018-07-01T08:38:51.653Z,21.80
2018-07-01T08:41:19.929Z,21.80
2018-07-01T08:43:48.653Z,21.90
2018-07-01T08:46:17.020Z,21.90
2018-07-01T08:48:45.269Z,22.00
2018-07-01T08:51:13.641Z,22.00
2018-07-01T08:53:41.872Z,22.00
2018-07-01T08:56:10.127Z,22.10
2018-07-01T08:58:38.433Z,22.10
2018-07-01T09:01:06.724Z,22.10
2018-07-01T09:03:34.971Z,22.10
2018-07-01T09:06:03.245Z,22.20
2018-07-01T09:08:31.547Z,22.20
2018-07-01T09:10:59.784Z,22.20
2018-07-01T09:13:28.058Z,22.20
2018-07-01T09:15:56.327Z,22.30
2018-07-01T09:18:24.577Z,22.30
2018-07-01T09:20:52.839Z,22.30
2018-07-01T09:23:21.101Z,22.30
2018-07-01T09:25:49.365Z,22.40
2018-07-01T09:28:17.649Z,22.40
2018-07-01T09:30:45.905Z,22.50
2018-07-01T09:33:14.397Z,22.50
2018-07-01T09:35:42.685Z,22.60
2018-07-01T09:38:10.937Z,22.60
2018-07-01T09:40:39.212Z,22.60
2018-07-01T09:43:07.493Z,22.70
2018-07-01T09:45:35.861Z,22.70
2018-07-01T09:48:04.173Z,22.80
2018-07-01T09:50:32.492Z,22.80
2018-07-01T09:53:00.761Z,22.90
2018-07-01T09:55:29.017Z,22.90
2018-07-01T09:57:57.301Z,22.90
2018-07-01T10:00:25.581Z,23.00
2018-07-01T10:02:53.863Z,23.00
2018-07-01T10:05:22.169Z,23.10
2018-07-01T10:07:50.416Z,23.10
2018-07-01T10:10:18.693Z,23.10
2018-07-01T10:12:46.943Z,23.20
2018-07-01T10:15:15.239Z,23.20
2018-07-01T10:17:43.504Z,23.30
2018-07-01T10:20:11.801Z,23.30
2018-07-01T10:22:40.068Z,23.30
2018-07-01T10:25:08.466Z,23.30
2018-07-01T10:27:36.851Z,23.40
2018-07-01T10:30:05.540Z,23.40
2018-07-01T10:32:33.870Z,23.50
2018-07-01T10:35:02.170Z,23.60
2018-07-01T10:37:30.447Z,23.60
2018-07-01T10:39:58.720Z,23.60
2018-07-01T10:42:26.968Z,23.60
2018-07-01T10:44:55.257Z,23.70
2018-07-01T10:47:23.525Z,23.70
2018-07-01T10:49:51.825Z,23.80
2018-07-01T10:52:20.106Z,23.80
2018-07-01T10:54:48.581Z,23.90
2018-07-01T10:57:16.872Z,23.90
2018-07-01T10:59:45.283Z,24.00
2018-07-01T11:02:13.610Z,24.00
2018-07-01T11:04:41.860Z,24.10
2018-07-01T11:07:10.169Z,24.10
2018-07-01T11:09:38.496Z,24.10
2018-07-01T11:12:06.914Z,24.20
2018-07-01T11:17:03.429Z,24.20
2018-07-01T11:19:31.709Z,24.20
2018-07-01T11:22:00.061Z,24.30
2018-07-01T11:24:28.312Z,24.40
2018-07-01T11:26:56.817Z,24.40
2018-07-01T11:29:24.925Z,24.40
2018-07-01T11:31:53.232Z,24.40
2018-07-01T11:34:21.489Z,24.50
2018-07-01T11:36:49.846Z,24.60
2018-07-01T11:39:18.090Z,24.60
2018-07-01T11:41:46.541Z,24.60
2018-07-01T11:44:14.829Z,24.70
2018-07-01T11:46:43.201Z,24.70
2018-07-01T11:49:11.525Z,24.70
2018-07-01T11:51:39.972Z,24.80
2018-07-01T11:54:08.386Z,24.80
2018-07-01T11:56:36.769Z,24.80
2018-07-01T11:59:08.640Z,24.80
2018-07-01T12:01:36.910Z,24.90
2018-07-01T12:04:05.492Z,24.90
2018-07-01T12:06:33.824Z,24.90
2018-07-01T12:09:02.399Z,25.00
2018-07-01T12:11:30.681Z,25.00
2018-07-01T12:13:58.956Z,25.10
2018-07-01T12:16:28.759Z,25.10
2018-07-01T12:18:58.315Z,25.40
2018-07-01T12:21:28.059Z,25.90
2018-07-01T12:23:56.379Z,26.30
2018-07-01T12:26:24.704Z,26.70
2018-07-01T12:28:53.623Z,27.00
2018-07-01T12:31:23.659Z,27.30
2018-07-01T12:33:53.315Z,27.40
2018-07-01T12:36:21.620Z,27.50
2018-07-01T12:38:49.952Z,27.90
2018-07-01T12:41:18.280Z,28.00
2018-07-01T12:43:46.607Z,28.00
2018-07-01T12:46:14.928Z,28.10
2018-07-01T12:48:43.304Z,28.20
2018-07-01T12:51:11.593Z,28.20
2018-07-01T12:53:39.903Z,28.40
2018-07-01T12:56:08.189Z,28.50
2018-07-01T12:58:36.461Z,28.50
2018-07-01T13:01:04.784Z,28.50
2018-07-01T13:03:33.046Z,28.60
2018-07-01T13:06:01.357Z,28.60
2018-07-01T13:08:29.608Z,28.60
2018-07-01T13:10:57.867Z,28.70
2018-07-01T13:13:26.160Z,28.70
2018-07-01T13:15:54.440Z,28.70
2018-07-01T13:18:22.777Z,28.70
2018-07-01T13:20:51.048Z,28.70
2018-07-01T13:23:19.390Z,28.70
2018-07-01T13:25:47.693Z,28.70
2018-07-01T13:28:15.976Z,28.80
2018-07-01T13:30:44.287Z,28.90
2018-07-01T13:33:12.566Z,28.80
2018-07-01T13:35:40.821Z,28.80
2018-07-01T13:38:09.086Z,28.90
2018-07-01T13:40:37.421Z,28.90
2018-07-01T13:43:05.705Z,28.90
2018-07-01T13:45:34.049Z,28.80
2018-07-01T13:48:03.005Z,28.80
2018-07-01T13:50:31.301Z,28.80
2018-07-01T13:52:59.727Z,28.80
2018-07-01T13:55:27.981Z,28.80
2018-07-01T13:57:56.384Z,29.00
2018-07-01T14:00:24.702Z,29.00
2018-07-01T14:02:52.958Z,29.00
2018-07-01T14:05:21.459Z,29.00
2018-07-01T14:07:49.878Z,29.00
2018-07-01T14:10:18.165Z,28.90
2018-07-01T14:15:14.541Z,28.90
2018-07-01T14:17:42.807Z,29.00
2018-07-01T14:20:11.772Z,29.00
2018-07-01T14:22:40.367Z,29.10
2018-07-01T14:25:09.659Z,29.10
2018-07-01T14:27:38.012Z,29.10
2018-07-01T14:30:06.651Z,29.10
2018-07-01T14:32:35.224Z,29.10
2018-07-01T14:35:03.542Z,29.10
2018-07-01T14:37:31.972Z,29.10
2018-07-01T14:40:00.293Z,29.10
2018-07-01T14:42:28.569Z,29.10
2018-07-01T14:44:57.105Z,29.10
2018-07-01T14:47:25.443Z,29.00
2018-07-01T14:49:53.700Z,28.90
2018-07-01T14:52:22.950Z,29.00
2018-07-01T14:54:51.286Z,29.00
2018-07-01T14:57:19.585Z,29.10
2018-07-01T14:59:48.060Z,29.10
2018-07-01T15:02:16.545Z,29.10
2018-07-01T15:04:44.796Z,29.10
2018-07-01T15:07:13.069Z,29.10
2018-07-01T15:09:41.387Z,29.20
2018-07-01T15:12:09.632Z,29.20
2018-07-01T15:17:06.965Z,29.20
2018-07-01T15:19:35.841Z,29.20
2018-07-01T15:22:04.481Z,29.20
2018-07-01T15:24:33.207Z,29.20
2018-07-01T15:27:01.694Z,29.20
2018-07-01T15:29:30.835Z,29.20
2018-07-01T15:31:59.572Z,29.20
2018-07-01T15:34:27.912Z,29.20
2018-07-01T15:36:56.553Z,29.10
2018-07-01T15:39:25.131Z,29.10
2018-07-01T15:44:22.321Z,29.20
2018-07-01T15:49:20.621Z,29.20
2018-07-01T15:51:51.110Z,29.20
2018-07-01T15:54:20.006Z,29.20
2018-07-01T15:56:49.978Z,29.10
2018-07-01T15:59:18.816Z,29.10
2018-07-01T16:01:47.603Z,29.10
2018-07-01T16:04:16.849Z,29.10
2018-07-01T16:06:45.879Z,29.10
2018-07-01T16:09:14.586Z,29.00
2018-07-01T16:11:43.170Z,29.10
2018-07-01T16:14:11.675Z,29.10
2018-07-01T16:16:41.409Z,29.10
2018-07-01T16:19:09.988Z,29.10
2018-07-01T16:21:39.027Z,29.00
2018-07-01T16:24:08.117Z,29.00
2018-07-01T16:29:10.534Z,28.90
2018-07-01T16:31:39.183Z,28.90
2018-07-01T16:34:09.870Z,29.00
2018-07-01T16:39:11.496Z,29.10
2018-07-01T16:41:40.481Z,29.10
2018-07-01T16:44:09.506Z,29.10
2018-07-01T16:46:38.193Z,29.20
2018-07-01T16:49:06.915Z,29.20
2018-07-01T16:51:35.695Z,29.30
2018-07-01T16:54:04.447Z,29.30
2018-07-01T16:56:33.379Z,29.30
2018-07-01T16:59:01.830Z,29.30
2018-07-01T17:01:30.440Z,29.30
2018-07-01T17:03:59.006Z,29.30
2018-07-01T17:06:28.194Z,29.30
2018-07-01T17:08:56.861Z,29.30
2018-07-01T17:11:25.505Z,29.30
2018-07-01T17:13:54.004Z,29.30
2018-07-01T17:16:22.288Z,29.40
2018-07-01T17:18:50.569Z,29.40
2018-07-01T17:23:47.177Z,29.60
2018-07-01T17:26:15.528Z,29.60
2018-07-01T17:28:43.785Z,29.60
2018-07-01T17:31:17.453Z,29.70
2018-07-01T17:33:45.925Z,29.70
2018-07-01T17:36:14.288Z,29.70
2018-07-01T17:38:42.629Z,29.80
2018-07-01T17:41:11.090Z,29.80
2018-07-01T17:43:39.425Z,29.80
2018-07-01T17:46:07.689Z,29.40
2018-07-01T17:48:35.981Z,28.70
2018-07-01T17:51:04.293Z,28.30
2018-07-01T17:53:44.008Z,27.50
2018-07-01T17:56:12.377Z,27.30
2018-07-01T17:58:40.769Z,27.10
2018-07-01T18:01:09.152Z,26.60
2018-07-01T18:06:05.826Z,26.40
2018-07-01T18:11:02.291Z,26.50
2018-07-01T18:13:30.753Z,26.40
2018-07-01T18:15:59.121Z,26.20
2018-07-01T18:18:27.789Z,25.90
2018-07-01T18:20:56.246Z,25.70
2018-07-01T18:23:53.707Z,25.80
2018-07-01T18:25:52.855Z,25.70
2018-07-01T18:28:34.110Z,25.70
2018-07-01T18:30:49.505Z,25.70
2018-07-01T18:33:17.977Z,25.90
2018-07-01T18:35:46.240Z,26.10
2018-07-01T18:38:14.521Z,26.30
2018-07-01T18:40:42.858Z,26.40
2018-07-01T18:43:11.273Z,26.40
2018-07-01T18:45:39.855Z,26.50
2018-07-01T18:48:08.356Z,26.50
2018-07-01T18:50:36.749Z,26.50
2018-07-01T18:53:05.106Z,26.50
2018-07-01T18:55:33.682Z,26.60
2018-07-01T18:58:02.365Z,26.60
2018-07-01T19:00:30.640Z,26.50
2018-07-01T19:02:58.904Z,26.60
2018-07-01T19:05:27.236Z,26.50
2018-07-01T19:07:55.533Z,26.50
2018-07-01T19:10:23.818Z,26.50
2018-07-01T19:12:52.111Z,26.50
2018-07-01T19:15:20.429Z,26.40
2018-07-01T19:17:48.756Z,26.40
2018-07-01T19:20:17.044Z,26.40
2018-07-01T19:22:45.337Z,26.40
2018-07-01T19:25:13.618Z,26.30
2018-07-01T19:27:41.861Z,26.20
2018-07-01T19:30:10.203Z,26.20
2018-07-01T19:32:38.462Z,26.30
2018-07-01T19:35:06.805Z,26.20
2018-07-01T19:40:03.288Z,26.20
2018-07-01T19:42:31.696Z,26.20
2018-07-01T19:44:59.857Z,26.10
2018-07-01T19:47:28.430Z,26.10
2018-07-01T19:49:56.830Z,26.10
2018-07-01T19:52:26.195Z,26.00
2018-07-01T19:54:54.444Z,25.90
2018-07-01T19:57:22.915Z,25.90
2018-07-01T19:59:51.457Z,25.90
2018-07-01T20:02:19.783Z,25.90
2018-07-01T20:04:48.054Z,25.90
2018-07-01T20:07:16.317Z,25.80
2018-07-01T20:09:44.604Z,25.80
2018-07-01T20:12:12.917Z,25.80
2018-07-01T20:14:41.258Z,25.70
2018-07-01T20:17:09.520Z,25.80
2018-07-01T20:19:37.791Z,25.70
2018-07-01T20:22:06.041Z,25.70
2018-07-01T20:24:34.314Z,25.70
2018-07-01T20:27:02.740Z,25.70
2018-07-01T20:29:31.233Z,25.60
2018-07-01T20:31:59.574Z,25.60
2018-07-01T20:34:28.342Z,25.50
2018-07-01T20:36:56.728Z,25.50
2018-07-01T20:39:25.873Z,25.50
2018-07-01T20:41:54.515Z,25.50
2018-07-01T20:44:23.092Z,25.50
2018-07-01T20:49:20.172Z,25.40
2018-07-01T20:51:48.575Z,25.30
2018-07-01T20:54:17.937Z,25.30
2018-07-01T20:56:46.397Z,25.30
2018-07-01T20:59:14.913Z,25.30
2018-07-01T21:01:43.228Z,25.20
2018-07-01T21:04:11.642Z,25.20
2018-07-01T21:06:40.117Z,25.20
2018-07-01T21:09:10.063Z,25.20
2018-07-01T21:11:38.547Z,25.10
2018-07-01T21:14:06.932Z,25.10
2018-07-01T21:16:35.396Z,25.10
2018-07-01T21:19:04.169Z,25.10
2018-07-01T21:21:32.746Z,25.00
2018-07-01T21:24:01.792Z,25.00
2018-07-01T21:26:30.176Z,25.00
2018-07-01T21:28:58.729Z,25.00
2018-07-01T21:31:27.293Z,24.90
2018-07-01T21:33:55.649Z,25.00
2018-07-01T21:36:23.914Z,24.90
2018-07-01T21:38:52.169Z,24.90
2018-07-01T21:41:20.769Z,24.90
2018-07-01T21:43:49.332Z,24.90
2018-07-01T21:46:17.618Z,24.90
2018-07-01T21:48:45.977Z,24.80
2018-07-01T21:51:14.392Z,24.80
2018-07-01T21:53:43.020Z,24.80
2018-07-01T21:56:11.528Z,24.70
2018-07-01T21:58:39.871Z,24.70
2018-07-01T22:01:09.426Z,24.70
2018-07-01T22:03:37.805Z,24.70
2018-07-01T22:06:08.357Z,24.70
2018-07-01T22:08:37.677Z,24.70
2018-07-01T22:11:21.192Z,24.60
2018-07-01T22:14:23.075Z,24.60
2018-07-01T22:19:20.024Z,24.50
2018-07-01T22:21:49.428Z,24.50
2018-07-01T22:24:17.829Z,24.40
2018-07-01T22:26:46.337Z,24.40
2018-07-01T22:29:15.706Z,24.40
2018-07-01T22:31:43.999Z,24.30
2018-07-01T22:34:13.584Z,24.40
2018-07-01T22:36:42.887Z,24.30
2018-07-01T22:39:16.844Z,24.30
2018-07-01T22:41:46.090Z,24.20
2018-07-01T22:46:43.507Z,24.20
2018-07-01T22:49:12.288Z,24.20
2018-07-01T22:51:41.485Z,24.10
2018-07-01T22:54:09.837Z,24.10
2018-07-01T22:56:38.495Z,24.10
2018-07-01T22:59:07.563Z,24.10
2018-07-01T23:01:37.069Z,24.00
2018-07-01T23:04:05.940Z,24.00
2018-07-01T23:06:34.369Z,24.00
2018-07-01T23:09:02.692Z,23.90
2018-07-01T23:11:31.162Z,23.90
2018-07-01T23:14:00.345Z,23.90
2018-07-01T23:16:28.791Z,23.80
2018-07-01T23:18:57.193Z,23.80
2018-07-01T23:21:25.600Z,23.80
2018-07-01T23:23:54.004Z,23.80
2018-07-01T23:26:22.505Z,23.80
2018-07-01T23:28:51.641Z,23.70
2018-07-01T23:31:20.181Z,23.70
2018-07-01T23:33:48.509Z,23.70
2018-07-01T23:38:48.213Z,23.50
2018-07-01T23:41:16.661Z,23.50
2018-07-01T23:43:45.010Z,23.50
2018-07-01T23:46:13.329Z,23.50
2018-07-01T23:48:42.425Z,23.40
2018-07-01T23:51:10.733Z,23.30
2018-07-01T23:53:39.049Z,23.20
2018-07-01T23:56:07.690Z,23.20
2018-07-01T23:58:36.590Z,23.20
